createdAt,value
2024-05-09T00:00:35.755Z,103036.69
2024-05-09T00:03:10.949Z,103047.72
2024-05-09T00:05:40.447Z,103040.50
2024-05-09T00:08:08.189Z,103035.09
2024-05-09T00:10:37.697Z,103031.66
2024-05-09T00:13:10.023Z,103028.69
2024-05-09T00:15:37.336Z,103031.22
2024-05-09T00:18:05.368Z,103034.09
2024-05-09T00:20:37.952Z,103037.19
2024-05-09T00:23:08.641Z,103032.59
2024-05-09T00:25:35.725Z,103029.38
2024-05-09T00:28:02.538Z,103024.31
2024-05-09T00:30:34.354Z,103026.41
2024-05-09T00:33:07.105Z,103029.72
2024-05-09T00:35:35.338Z,103027.31
2024-05-09T00:38:02.382Z,103023.09
2024-05-09T00:40:39.138Z,103021.13
2024-05-09T00:43:08.309Z,103018.38
2024-05-09T00:45:35.578Z,103018.59
2024-05-09T00:48:04.848Z,103013.78
2024-05-09T00:50:37.108Z,103019.28
2024-05-09T00:53:06.805Z,103010.69
2024-05-09T00:55:34.668Z,103016.78
2024-05-09T00:58:01.716Z,103018.84
2024-05-09T01:00:35.930Z,103012.41
2024-05-09T01:03:06.574Z,103010.00
2024-05-09T01:05:34.711Z,103015.16
2024-05-09T01:08:01.833Z,103017.47
2024-05-09T01:10:34.106Z,103018.72
2024-05-09T01:13:03.221Z,103012.28
2024-05-09T01:15:29.875Z,103008.03
2024-05-09T01:17:57.092Z,103007.44
2024-05-09T01:20:35.914Z,103011.59
2024-05-09T01:23:07.348Z,103017.31
2024-05-09T01:25:34.155Z,103008.22
2024-05-09T01:28:00.901Z,103005.25
2024-05-09T01:30:34.101Z,103004.69
2024-05-09T01:33:03.583Z,103005.34
2024-05-09T01:35:30.490Z,103006.63
2024-05-09T01:37:57.128Z,103005.47
2024-05-09T01:40:33.325Z,103004.09
2024-05-09T01:43:04.518Z,102994.78
2024-05-09T01:45:31.107Z,102989.75
2024-05-09T01:47:57.823Z,102994.63
2024-05-09T01:50:35.842Z,102999.13
2024-05-09T01:53:05.834Z,102997.72
2024-05-09T01:55:32.599Z,102997.94
2024-05-09T01:57:59.182Z,102991.03
2024-05-09T02:00:36.858Z,102994.72
2024-05-09T02:03:13.943Z,103003.09
2024-05-09T02:05:43.339Z,103008.03
2024-05-09T02:08:17.750Z,103001.56
2024-05-09T02:10:45.376Z,103001.56
2024-05-09T02:13:13.122Z,102994.47
2024-05-09T02:15:39.742Z,102998.13
2024-05-09T02:18:07.360Z,102997.78
2024-05-09T02:20:36.760Z,102995.81
2024-05-09T02:23:06.181Z,102989.72
2024-05-09T02:25:33.276Z,102987.31
2024-05-09T02:27:59.903Z,102993.03
2024-05-09T02:30:36.478Z,102987.97
2024-05-09T02:33:07.506Z,102992.69
2024-05-09T02:35:34.633Z,102987.84
2024-05-09T02:38:01.638Z,102999.66
2024-05-09T02:40:36.334Z,103002.53
2024-05-09T02:43:05.755Z,103001.94
2024-05-09T02:45:32.553Z,102987.44
2024-05-09T02:47:59.434Z,102995.72
2024-05-09T02:50:33.962Z,102996.75
2024-05-09T02:53:04.949Z,102987.66
2024-05-09T02:55:31.661Z,102990.53
2024-05-09T02:57:58.208Z,102986.50
2024-05-09T03:00:34.202Z,102992.81
2024-05-09T03:03:06.380Z,102989.81
2024-05-09T03:05:33.444Z,102988.19
2024-05-09T03:08:00.227Z,102992.09
2024-05-09T03:10:29.106Z,102996.78
2024-05-09T03:13:05.639Z,102979.78
2024-05-09T03:15:32.990Z,102983.47
2024-05-09T03:18:00.747Z,102978.63
2024-05-09T03:20:33.249Z,102980.69
2024-05-09T03:23:02.021Z,102980.91
2024-05-09T03:25:28.673Z,102982.94
2024-05-09T03:27:55.223Z,102976.28
2024-05-09T03:30:31.074Z,102975.91
2024-05-09T03:33:18.021Z,102972.47
2024-05-09T03:35:46.298Z,102984.47
2024-05-09T03:38:13.111Z,102978.03
2024-05-09T03:40:50.452Z,102983.53
2024-05-09T03:43:17.781Z,102978.47
2024-05-09T03:45:44.765Z,102973.63
2024-05-09T03:48:11.699Z,102978.13
2024-05-09T03:50:38.731Z,102980.97
2024-05-09T03:53:05.701Z,102979.59
2024-05-09T03:55:32.332Z,102985.06
2024-05-09T03:57:59.173Z,102987.94
2024-05-09T04:00:34.170Z,102984.69
2024-05-09T04:03:07.156Z,102984.94
2024-05-09T04:05:36.621Z,102988.34
2024-05-09T04:08:03.375Z,102987.78
2024-05-09T04:10:33.615Z,102985.38
2024-05-09T04:13:01.798Z,102980.31
2024-05-09T04:15:28.475Z,102979.50
2024-05-09T04:17:55.333Z,102978.69
2024-05-09T04:20:32.972Z,102985.78
2024-05-09T04:23:06.027Z,102982.38
2024-05-09T04:25:32.757Z,102982.38
2024-05-09T04:27:59.396Z,102985.44
2024-05-09T04:30:34.798Z,102979.34
2024-05-09T04:33:06.423Z,102983.38
2024-05-09T04:35:33.869Z,102983.59
2024-05-09T04:38:00.616Z,102988.44
2024-05-09T04:40:33.181Z,102990.06
2024-05-09T04:43:02.885Z,102995.06
2024-05-09T04:45:29.487Z,102993.25
2024-05-09T04:47:56.292Z,102998.31
2024-05-09T04:50:30.306Z,102991.22
2024-05-09T04:53:03.524Z,102991.56
2024-05-09T04:55:30.328Z,102994.00
2024-05-09T04:57:56.912Z,102989.31
2024-05-09T05:00:32.372Z,102995.97
2024-05-09T05:03:08.141Z,102996.56
2024-05-09T05:05:42.017Z,102996.34
2024-05-09T05:08:12.295Z,102998.56
2024-05-09T05:10:38.967Z,103003.97
2024-05-09T05:13:22.283Z,103002.72
2024-05-09T05:15:56.424Z,103001.47
2024-05-09T05:18:24.426Z,103003.75
2024-05-09T05:23:22.138Z,103004.13
2024-05-09T05:25:49.580Z,103002.84
2024-05-09T05:28:16.899Z,103001.19
2024-05-09T05:30:43.552Z,103011.88
2024-05-09T05:33:11.270Z,103013.03
2024-05-09T05:35:38.264Z,103007.91
2024-05-09T05:38:06.570Z,103008.69
2024-05-09T05:40:37.002Z,103000.34
2024-05-09T05:43:06.012Z,102999.13
2024-05-09T05:45:32.545Z,103006.13
2024-05-09T05:47:59.958Z,102998.34
2024-05-09T05:50:32.681Z,103011.44
2024-05-09T05:53:03.212Z,103003.69
2024-05-09T05:55:29.978Z,103007.84
2024-05-09T05:57:56.522Z,102995.59
2024-05-09T06:00:29.840Z,103005.59
2024-05-09T06:03:04.435Z,103006.88
2024-05-09T06:05:31.248Z,103000.75
2024-05-09T06:07:57.930Z,102991.44
2024-05-09T06:10:30.026Z,102999.41
2024-05-09T06:13:03.866Z,103002.50
2024-05-09T06:15:30.400Z,102992.88
2024-05-09T06:17:57.016Z,102986.22
2024-05-09T06:20:31.066Z,102983.22
2024-05-09T06:23:02.937Z,102982.88
2024-05-09T06:25:29.589Z,102987.84
2024-05-09T06:27:56.133Z,102985.03
2024-05-09T06:30:30.058Z,102984.59
2024-05-09T06:33:05.371Z,102985.03
2024-05-09T06:35:32.649Z,102991.25
2024-05-09T06:37:59.440Z,102992.47
2024-05-09T06:40:34.440Z,102989.94
2024-05-09T06:43:04.866Z,102997.50
2024-05-09T06:45:31.429Z,102986.00
2024-05-09T06:47:58.150Z,102986.66
2024-05-09T06:50:28.315Z,102976.41
2024-05-09T06:52:58.403Z,102981.94
2024-05-09T06:55:25.002Z,102987.63
2024-05-09T06:57:51.551Z,102984.06
2024-05-09T07:00:26.875Z,102985.72
2024-05-09T07:02:59.052Z,102982.16
2024-05-09T07:05:26.810Z,102983.84
2024-05-09T07:07:53.544Z,102980.22
2024-05-09T07:10:28.471Z,102975.59
2024-05-09T07:12:59.367Z,102973.38
2024-05-09T07:15:25.935Z,102973.19
2024-05-09T07:17:52.790Z,102969.34
2024-05-09T07:20:27.625Z,102963.63
2024-05-09T07:23:00.649Z,102962.91
2024-05-09T07:25:27.247Z,102961.69
2024-05-09T07:27:53.791Z,102962.56
2024-05-09T07:30:27.622Z,102968.50
2024-05-09T07:32:59.909Z,102969.13
2024-05-09T07:35:26.908Z,102960.78
2024-05-09T07:37:53.751Z,102956.91
2024-05-09T07:42:49.829Z,102961.38
2024-05-09T07:45:39.106Z,102955.88
2024-05-09T07:52:22.964Z,102960.09
2024-05-09T07:53:38.536Z,102958.72
2024-05-09T07:56:07.044Z,102955.53
2024-05-09T07:58:33.926Z,102960.78
2024-05-09T08:01:02.472Z,102950.09
2024-05-09T08:03:29.232Z,102955.56
2024-05-09T08:05:58.381Z,102964.66
2024-05-09T08:08:24.959Z,102952.00
2024-05-09T08:10:51.628Z,102958.47
2024-05-09T08:13:18.343Z,102955.13
2024-05-09T08:15:45.068Z,102955.19
2024-05-09T08:18:11.859Z,102949.59
2024-05-09T08:20:39.339Z,102954.50
2024-05-09T08:23:06.140Z,102952.22
2024-05-09T08:25:32.847Z,102952.06
2024-05-09T08:27:59.491Z,102958.69
2024-05-09T08:30:32.871Z,102963.06
2024-05-09T08:33:03.750Z,102952.94
2024-05-09T08:35:30.637Z,102945.16
2024-05-09T08:37:57.427Z,102953.56
2024-05-09T08:40:30.956Z,102953.91
2024-05-09T08:43:02.805Z,102949.03
2024-05-09T08:45:29.623Z,102943.72
2024-05-09T08:47:56.750Z,102937.50
2024-05-09T08:50:32.162Z,102940.28
2024-05-09T08:53:05.076Z,102941.44
2024-05-09T08:55:31.804Z,102935.47
2024-05-09T08:57:59.256Z,102931.28
2024-05-09T09:00:35.623Z,102932.31
2024-05-09T09:03:05.858Z,102937.00
2024-05-09T09:05:33.705Z,102935.72
2024-05-09T09:08:00.609Z,102937.00
2024-05-09T09:10:32.112Z,102936.53
2024-05-09T09:13:09.635Z,102937.47
2024-05-09T09:15:46.928Z,102944.19
2024-05-09T09:18:13.962Z,102936.53
2024-05-09T09:20:40.657Z,102942.31
2024-05-09T09:23:07.949Z,102932.31
2024-05-09T09:25:34.489Z,102943.69
2024-05-09T09:28:01.266Z,102942.66
2024-05-09T09:30:35.368Z,102941.94
2024-05-09T09:33:05.473Z,102949.75
2024-05-09T09:35:32.662Z,102942.78
2024-05-09T09:38:02.281Z,102941.06
2024-05-09T09:40:39.197Z,102934.22
2024-05-09T09:43:14.414Z,102933.47
2024-05-09T09:45:41.992Z,102928.59
2024-05-09T09:48:10.164Z,102929.97
2024-05-09T09:50:37.395Z,102924.34
2024-05-09T09:53:04.944Z,102927.19
2024-05-09T09:55:32.613Z,102919.63
2024-05-09T09:58:01.884Z,102915.00
2024-05-09T10:00:33.046Z,102921.31
2024-05-09T10:03:01.427Z,102912.38
2024-05-09T10:05:29.030Z,102915.72
2024-05-09T10:07:56.496Z,102910.22
2024-05-09T10:10:31.515Z,102913.31
2024-05-09T10:13:00.094Z,102909.69
2024-05-09T10:15:26.779Z,102906.72
2024-05-09T10:17:53.532Z,102898.00
2024-05-09T10:20:24.712Z,102910.91
2024-05-09T10:22:54.393Z,102898.31
2024-05-09T10:25:21.214Z,102901.47
2024-05-09T10:27:55.175Z,102898.59
2024-05-09T10:30:29.656Z,102903.97
2024-05-09T10:33:02.297Z,102902.78
2024-05-09T10:35:31.398Z,102900.09
2024-05-09T10:38:05.645Z,102904.97
2024-05-09T10:40:32.326Z,102901.06
2024-05-09T10:43:02.550Z,102889.06
2024-05-09T10:45:31.957Z,102892.84
2024-05-09T10:47:58.793Z,102887.38
2024-05-09T10:50:29.151Z,102886.66
2024-05-09T10:53:00.401Z,102889.13
2024-05-09T10:55:27.456Z,102893.06
2024-05-09T10:57:54.134Z,102886.69
2024-05-09T11:00:27.583Z,102885.84
2024-05-09T11:03:00.156Z,102885.25
2024-05-09T11:05:26.996Z,102897.59
2024-05-09T11:07:53.829Z,102880.09
2024-05-09T11:10:27.412Z,102888.56
2024-05-09T11:12:58.519Z,102891.16
2024-05-09T11:15:25.922Z,102887.13
2024-05-09T11:17:52.626Z,102884.38
2024-05-09T11:20:26.792Z,102884.94
2024-05-09T11:22:57.675Z,102879.59
2024-05-09T11:25:24.281Z,102872.53
2024-05-09T11:27:50.987Z,102873.44
2024-05-09T11:30:26.692Z,102876.06
2024-05-09T11:32:58.812Z,102863.16
2024-05-09T11:35:26.419Z,102864.81
2024-05-09T11:37:53.055Z,102861.69
2024-05-09T11:40:25.371Z,102862.22
2024-05-09T11:42:55.270Z,102855.19
2024-05-09T11:45:22.047Z,102852.50
2024-05-09T11:47:48.918Z,102844.25
2024-05-09T11:50:22.616Z,102849.38
2024-05-09T11:52:56.016Z,102855.63
2024-05-09T11:55:26.764Z,102847.97
2024-05-09T11:57:54.588Z,102838.13
2024-05-09T12:00:29.460Z,102836.63
2024-05-09T12:03:04.999Z,102829.69
2024-05-09T12:05:32.295Z,102832.84
2024-05-09T12:07:59.059Z,102834.75
2024-05-09T12:10:32.723Z,102831.75
2024-05-09T12:13:01.914Z,102835.34
2024-05-09T12:15:28.825Z,102834.47
2024-05-09T12:17:58.192Z,102827.78
2024-05-09T12:20:34.769Z,102824.03
2024-05-09T12:23:04.454Z,102828.81
2024-05-09T12:25:31.091Z,102824.06
2024-05-09T12:27:57.693Z,102824.25
2024-05-09T12:30:33.258Z,102828.53
2024-05-09T12:33:04.895Z,102822.69
2024-05-09T12:35:31.709Z,102825.66
2024-05-09T12:37:58.325Z,102817.41
2024-05-09T12:40:34.214Z,102816.19
2024-05-09T12:43:04.501Z,102822.13
2024-05-09T12:45:31.545Z,102813.22
2024-05-09T12:47:58.362Z,102816.47
2024-05-09T12:50:31.734Z,102814.81
2024-05-09T12:53:00.364Z,102807.16
2024-05-09T12:55:28.121Z,102811.19
2024-05-09T12:57:55.073Z,102802.16
2024-05-09T13:00:28.152Z,102806.53
2024-05-09T13:03:00.346Z,102808.06
2024-05-09T13:05:27.384Z,102799.63
2024-05-09T13:07:54.133Z,102804.59
2024-05-09T13:10:29.005Z,102798.47
2024-05-09T13:12:59.445Z,102806.13
2024-05-09T13:15:26.296Z,102795.88
2024-05-09T13:17:52.982Z,102802.03
2024-05-09T13:20:28.895Z,102803.72
2024-05-09T13:23:01.434Z,102809.66
2024-05-09T13:25:28.308Z,102801.81
2024-05-09T13:27:55.093Z,102809.03
2024-05-09T13:30:29.349Z,102806.84
2024-05-09T13:33:04.841Z,102803.75
2024-05-09T13:35:32.159Z,102805.44
2024-05-09T13:37:58.777Z,102805.44
2024-05-09T13:40:32.322Z,102805.50
2024-05-09T13:43:01.973Z,102814.22
2024-05-09T13:45:28.819Z,102818.19
2024-05-09T13:47:55.622Z,102815.53
2024-05-09T13:50:31.011Z,102811.16
2024-05-09T13:53:01.799Z,102815.44
2024-05-09T13:55:28.512Z,102811.66
2024-05-09T13:57:55.507Z,102806.72
2024-05-09T14:00:37.624Z,102807.06
2024-05-09T14:03:08.930Z,102799.81
2024-05-09T14:05:35.841Z,102791.09
2024-05-09T14:08:02.525Z,102791.88
2024-05-09T14:10:31.475Z,102790.19
2024-05-09T14:12:59.022Z,102790.19
2024-05-09T14:15:25.672Z,102786.31
2024-05-09T14:17:52.361Z,102786.59
2024-05-09T14:20:28.503Z,102782.84
2024-05-09T14:22:58.252Z,102782.75
2024-05-09T14:25:26.329Z,102774.00
2024-05-09T14:27:53.248Z,102774.53
2024-05-09T14:30:29.576Z,102770.06
2024-05-09T14:33:01.183Z,102767.19
2024-05-09T14:35:27.904Z,102768.53
2024-05-09T14:37:57.287Z,102763.31
2024-05-09T14:42:53.369Z,102761.31
2024-05-09T14:45:19.969Z,102752.13
2024-05-09T14:47:46.726Z,102755.81
2024-05-09T14:50:19.623Z,102744.53
2024-05-09T14:52:54.065Z,102749.19
2024-05-09T14:55:20.627Z,102746.84
2024-05-09T14:57:47.327Z,102740.88
2024-05-09T15:00:21.313Z,102745.78
2024-05-09T15:02:52.968Z,102735.66
2024-05-09T15:05:19.763Z,102732.03
2024-05-09T15:07:46.524Z,102731.22
2024-05-09T15:10:20.408Z,102732.03
2024-05-09T15:12:52.248Z,102730.59
2024-05-09T15:15:22.317Z,102724.13
2024-05-09T15:17:49.297Z,102729.31
2024-05-09T15:20:20.484Z,102731.34
2024-05-09T15:22:50.866Z,102720.75
2024-05-09T15:25:17.504Z,102722.66
2024-05-09T15:27:44.284Z,102723.94
2024-05-09T15:30:23.868Z,102723.63
2024-05-09T15:32:54.090Z,102723.75
2024-05-09T15:35:20.813Z,102715.69
2024-05-09T15:37:48.401Z,102710.69
2024-05-09T15:40:21.577Z,102714.63
2024-05-09T15:42:53.320Z,102710.69
2024-05-09T15:45:19.972Z,102703.56
2024-05-09T15:47:46.771Z,102704.19
2024-05-09T15:50:20.432Z,102712.25
2024-05-09T15:52:55.310Z,102702.25
2024-05-09T15:55:21.871Z,102696.53
2024-05-09T15:57:48.488Z,102693.69
2024-05-09T16:00:24.367Z,102700.16
2024-05-09T16:03:08.805Z,102689.09
2024-05-09T16:05:36.310Z,102698.00
2024-05-09T16:08:03.175Z,102696.88
2024-05-09T16:10:32.955Z,102684.03
2024-05-09T16:13:01.819Z,102681.50
2024-05-09T16:15:28.788Z,102684.22
2024-05-09T16:17:55.733Z,102679.19
2024-05-09T16:20:33.941Z,102671.13
2024-05-09T16:23:07.430Z,102682.50
2024-05-09T16:25:34.143Z,102667.66
2024-05-09T16:28:01.478Z,102662.13
2024-05-09T16:30:34.376Z,102661.00
2024-05-09T16:33:03.873Z,102657.69
2024-05-09T16:35:31.212Z,102655.63
2024-05-09T16:37:57.788Z,102652.47
2024-05-09T16:40:34.321Z,102659.72
2024-05-09T16:43:05.871Z,102669.81
2024-05-09T16:45:33.192Z,102662.13
2024-05-09T16:48:00.414Z,102657.50
2024-05-09T16:50:32.496Z,102658.81
2024-05-09T16:53:01.049Z,102658.63
2024-05-09T16:55:27.905Z,102661.00
2024-05-09T16:57:55.602Z,102660.69
2024-05-09T17:00:31.706Z,102660.22
2024-05-09T17:03:06.979Z,102661.16
2024-05-09T17:05:34.483Z,102654.63
2024-05-09T17:08:01.477Z,102651.09
2024-05-09T17:10:32.861Z,102644.00
2024-05-09T17:13:01.873Z,102657.19
2024-05-09T17:15:28.637Z,102655.88
2024-05-09T17:17:55.331Z,102653.97
2024-05-09T17:20:29.548Z,102657.75
2024-05-09T17:23:01.580Z,102659.81
2024-05-09T17:25:28.351Z,102654.97
2024-05-09T17:27:55.225Z,102657.38
2024-05-09T17:30:29.031Z,102654.69
2024-05-09T17:33:01.659Z,102656.84
2024-05-09T17:35:28.489Z,102652.97
2024-05-09T17:37:55.060Z,102653.56
2024-05-09T17:40:30.715Z,102652.06
2024-05-09T17:43:01.191Z,102650.84
2024-05-09T17:45:27.916Z,102653.31
2024-05-09T17:47:54.849Z,102649.91
2024-05-09T17:50:27.640Z,102646.53
2024-05-09T17:53:00.709Z,102644.72
2024-05-09T17:55:27.517Z,102649.59
2024-05-09T17:57:54.356Z,102642.94
2024-05-09T18:00:29.257Z,102638.47
2024-05-09T18:03:04.051Z,102633.69
2024-05-09T18:05:31.159Z,102637.69
2024-05-09T18:07:57.942Z,102642.00
2024-05-09T18:10:32.551Z,102640.56
2024-05-09T18:13:03.344Z,102637.97
2024-05-09T18:15:29.930Z,102641.56
2024-05-09T18:17:56.698Z,102639.44
2024-05-09T18:20:33.093Z,102637.63
2024-05-09T18:23:07.973Z,102632.38
2024-05-09T18:25:35.234Z,102640.69
2024-05-09T18:28:05.277Z,102641.19
2024-05-09T18:30:35.287Z,102636.16
2024-05-09T18:33:05.358Z,102633.81
2024-05-09T18:35:33.326Z,102628.03
2024-05-09T18:38:00.058Z,102637.47
2024-05-09T18:40:33.363Z,102638.63
2024-05-09T18:43:03.680Z,102641.63
2024-05-09T18:45:30.615Z,102650.47
2024-05-09T18:47:57.547Z,102644.09
2024-05-09T18:50:32.317Z,102643.09
2024-05-09T18:53:06.377Z,102645.81
2024-05-09T18:55:33.225Z,102646.09
2024-05-09T18:58:00.102Z,102643.22
2024-05-09T19:00:33.878Z,102648.91
2024-05-09T19:03:05.607Z,102650.84
2024-05-09T19:05:33.222Z,102650.31
2024-05-09T19:08:00.013Z,102649.53
2024-05-09T19:10:33.650Z,102654.38
2024-05-09T19:13:04.399Z,102648.53
2024-05-09T19:15:34.281Z,102660.31
2024-05-09T19:18:01.149Z,102653.75
2024-05-09T19:20:33.403Z,102650.88
2024-05-09T19:23:01.639Z,102653.66
2024-05-09T19:25:28.184Z,102649.44
2024-05-09T19:27:54.956Z,102651.31
2024-05-09T19:30:29.925Z,102654.59
2024-05-09T19:33:04.653Z,102645.03
2024-05-09T19:35:31.405Z,102650.41
2024-05-09T19:37:58.231Z,102641.38
2024-05-09T19:40:30.732Z,102654.75
2024-05-09T19:42:59.717Z,102654.81
2024-05-09T19:45:26.345Z,102659.63
2024-05-09T19:47:53.112Z,102658.41
2024-05-09T19:50:26.880Z,102658.22
2024-05-09T19:53:02.339Z,102654.78
2024-05-09T19:55:28.897Z,102663.03
2024-05-09T19:57:55.499Z,102660.13
2024-05-09T20:00:29.153Z,102658.59
2024-05-09T20:03:01.862Z,102667.69
2024-05-09T20:05:30.728Z,102670.09
2024-05-09T20:07:57.669Z,102670.38
2024-05-09T20:10:29.830Z,102671.16
2024-05-09T20:12:59.430Z,102678.13
2024-05-09T20:15:26.049Z,102676.00
2024-05-09T20:17:52.700Z,102676.81
2024-05-09T20:20:28.373Z,102675.25
2024-05-09T20:23:02.892Z,102672.88
2024-05-09T20:25:29.585Z,102669.97
2024-05-09T20:28:00.422Z,102671.31
2024-05-09T20:30:32.105Z,102668.41
2024-05-09T20:33:02.860Z,102671.63
2024-05-09T20:35:32.300Z,102679.34
2024-05-09T20:37:59.341Z,102677.22
2024-05-09T20:40:31.970Z,102667.94
2024-05-09T20:43:02.234Z,102673.03
2024-05-09T20:45:28.848Z,102670.66
2024-05-09T20:47:55.868Z,102677.81
2024-05-09T20:50:29.266Z,102673.84
2024-05-09T20:53:05.047Z,102673.31
2024-05-09T20:55:31.853Z,102676.25
2024-05-09T20:57:58.692Z,102676.78
2024-05-09T21:00:34.290Z,102681.31
2024-05-09T21:03:07.026Z,102681.06
2024-05-09T21:05:34.954Z,102671.47
2024-05-09T21:08:02.133Z,102667.44
2024-05-09T21:10:32.783Z,102663.72
2024-05-09T21:13:01.147Z,102659.47
2024-05-09T21:15:28.058Z,102664.25
2024-05-09T21:17:54.672Z,102662.69
2024-05-09T21:20:28.259Z,102656.28
2024-05-09T21:22:58.128Z,102663.75
2024-05-09T21:25:24.826Z,102661.59
2024-05-09T21:27:51.659Z,102660.28
2024-05-09T21:30:27.737Z,102664.53
2024-05-09T21:33:04.584Z,102661.88
2024-05-09T21:35:31.264Z,102662.66
2024-05-09T21:37:57.817Z,102653.88
2024-05-09T21:40:31.533Z,102650.44
2024-05-09T21:43:01.501Z,102656.78
2024-05-09T21:45:28.199Z,102664.75
2024-05-09T21:47:54.951Z,102656.78
2024-05-09T21:50:28.183Z,102659.94
2024-05-09T21:53:02.058Z,102650.91
2024-05-09T21:55:28.600Z,102654.34
2024-05-09T21:57:56.462Z,102654.34
2024-05-09T22:00:29.209Z,102659.63
2024-05-09T22:03:02.468Z,102655.13
2024-05-09T22:05:29.329Z,102654.78
2024-05-09T22:07:56.485Z,102659.56
2024-05-09T22:10:27.098Z,102662.19
2024-05-09T22:12:59.744Z,102662.69
2024-05-09T22:15:26.315Z,102657.13
2024-05-09T22:17:53.602Z,102654.19
2024-05-09T22:20:28.715Z,102657.59
2024-05-09T22:23:02.200Z,102660.25
2024-05-09T22:25:30.705Z,102666.09
2024-05-09T22:27:58.003Z,102665.00
2024-05-09T22:30:33.156Z,102661.81
2024-05-09T22:33:03.736Z,102673.47
2024-05-09T22:35:30.452Z,102674.53
2024-05-09T22:37:57.029Z,102672.91
2024-05-09T22:40:32.263Z,102667.34
2024-05-09T22:43:05.907Z,102675.00
2024-05-09T22:45:32.671Z,102667.28
2024-05-09T22:47:59.638Z,102675.75
2024-05-09T22:50:30.528Z,102675.47
2024-05-09T22:52:59.199Z,102674.38
2024-05-09T22:55:25.947Z,102674.34
2024-05-09T22:57:52.604Z,102677.50
2024-05-09T23:00:26.302Z,102668.19
2024-05-09T23:02:57.808Z,102667.63
2024-05-09T23:05:24.462Z,102669.72
2024-05-09T23:07:51.012Z,102672.09
2024-05-09T23:10:25.009Z,102669.94
2024-05-09T23:12:58.524Z,102674.41
2024-05-09T23:15:25.112Z,102659.50
2024-05-09T23:17:51.827Z,102669.81
2024-05-09T23:20:29.619Z,102663.97
2024-05-09T23:23:03.207Z,102665.28
2024-05-09T23:25:29.724Z,102671.03
2024-05-09T23:27:56.284Z,102669.97
2024-05-09T23:30:33.051Z,102665.91
2024-05-09T23:33:04.615Z,102664.81
2024-05-09T23:35:31.275Z,102672.47
2024-05-09T23:37:57.827Z,102661.06
2024-05-09T23:40:34.668Z,102663.16
2024-05-09T23:43:05.345Z,102661.03
2024-05-09T23:45:31.927Z,102664.19
2024-05-09T23:47:58.664Z,102660.41
2024-05-09T23:50:33.574Z,102663.06
2024-05-09T23:53:03.165Z,102659.56
2024-05-09T23:55:31.107Z,102655.31
2024-05-09T23:57:57.683Z,102655.31
